KATL/ATL METAR and TAF weather

Enter ICAO airport designator
Station Type Date Time Source
KATL METAR 2019/12/06 13:52 UTC NOAA

KATL 061352Z 00000KT 10SM FEW090 BKN120 BKN160 10/00 A3020 RMK AO2 SLP227 VIRGA OHD AND SE-SW T01000000


Station Type Date Time Source
KATL Decoded METAR 2019/12/06 13:52 UTC NOAA

HARTSFIELD-JACKSON ATLANTA, GA, United States (KATL) 33-39N 84-26W
Dec 06, 2019 - 08:52 AM EST / 2019.12.06 1352 UTC
Wind: Calm:0
Visibility: 10 mile(s):0
Sky conditions: mostly cloudy
Temperature: 50.0 F (10.0 C)
Dew Point: 32.0 F (0.0 C)
Relative Humidity: 49%
Pressure (altimeter): 30.2 in. Hg (1022 hPa)
ob: KATL 061352Z 00000KT 10SM FEW090 BKN120 BKN160 10/00 A3020 RMK AO2 SLP227 VIRGA OHD AND SE-SW T01000000
cycle: 14

Station Type Date Time Source
KATL TAF 2019/12/06 14:45 UTC NOAA

TAF
AMD KATL 061341Z 0614/0718 15004KT P6SM SCT070 BKN100
FM061800 17006KT P6SM VCSH SCT060 BKN100
FM062000 16004KT P6SM -RA OVC060
FM070100 08003KT P6SM SCT035 OVC060
FM070700 05004KT P6SM BKN025
FM071400 07006KT P6SM BKN040

Example: see airport list